• Join FlightAware (Why Join?)
  • Login
  • US Flag 
01:50PM EDT


 

Airport Tracker/Info


-or-


 

Live Flight TrackerFlight Track Log ✈ UAL3272 ✈ 13-Apr-2013 ✈ CYYZ - KCLE

Flight Track Log - Related Links

Times and Time Zones

All times are in EDT time to prevent confusion due to time zone crossing. See the UAL3272 flight status page for this flight to view local times or setup timezone preferences in your user account.

Time Position Orientation Groundspeed Altitude Reporting Facility
EDT Latitude Longitude Course Direction KTS MPH feet Rate Location/Type
06:36AM 43.6333 -79.6333 227° Southwest 150 173 2,200  Level Toronto Center
06:37AM 43.6000 -79.6833 227° Southwest 210 242 3,900 2,160 Climbing Toronto Center
06:38AM 43.5333 -79.7000 190° South 240 276 6,600 1,500 Climbing Toronto Center
06:39AM 43.4667 -79.7000 180° South 250 288 7,000 960 Climbing Toronto Center
06:40AM 43.4000 -79.7000 180° South 230 265 8,600 1,440 Climbing Toronto Center
06:41AM 43.3333 -79.7167 190° South 250 288 9,900 1,200 Climbing Toronto Center
06:42AM 43.2333 -79.7167 180° South 300 345 11,100 1,260 Climbing Toronto Center
06:43AM 43.1667 -79.7667 209° Southwest 310 357 12,500 1,380 Climbing Toronto Center
06:44AM 43.0833 -79.8333 210° Southwest 320 368 13,900 1,200 Climbing Toronto Center
06:45AM 43.0000 -79.9000 210° Southwest 320 368 15,000 1,020 Climbing Toronto Center
06:46AM 42.9333 -79.9667 216° Southwest 330 380 16,000 1,560 Climbing Toronto Center
06:47AM 42.8667 -80.0500 223° Southwest 320 368 18,200 1,920 Climbing Toronto Center
06:47AM 42.8383 -80.0764 214° Southwest 338 389 18,900 1,800 Climbing Cleveland Center
06:48AM 42.7719 -80.1336 212° Southwest 312 359 20,900 1,500 Climbing Cleveland Center
06:49AM 42.6972 -80.1906 209° Southwest 304 350 22,000 540 Climbing Cleveland Center
06:50AM 42.6222 -80.2617 215° Southwest 323 372 22,000  Level Cleveland Center
06:51AM 42.5286 -80.3353 210° Southwest 352 405 22,000  Level Cleveland Center
06:52AM 42.4433 -80.4089 213° Southwest 362 417 22,000  Level Cleveland Center
06:53AM 42.3581 -80.4736 209° Southwest 368 423 22,000  Level Cleveland Center
06:54AM 42.2767 -80.5439 213° Southwest 354 407 22,000  Level Cleveland Center
06:55AM 42.1975 -80.6111 212° Southwest 354 407 22,000  Level Cleveland Center
06:56AM 42.1164 -80.6783 212° Southwest 344 396 22,000  Level Cleveland Center
06:57AM 42.0350 -80.7425 210° Southwest 337 388 22,000 -300 Level Cleveland Center
06:58AM 41.9556 -80.8094 212° Southwest 342 394 21,400 -1,560 Descending Cleveland Center
06:59AM 41.8761 -80.8731 211° Southwest 342 394 18,900 -2,520 Descending Cleveland Center
07:00AM 41.8094 -80.9286 212° Southwest 336 387 16,400 -2,640 Descending Cleveland Center
07:01AM 41.7319 -80.9894 210° Southwest 329 379 13,700 -2,520 Descending Cleveland Center
07:02AM 41.6672 -81.0472 214° Southwest 300 345 11,900 -1,860 Descending Cleveland Center
07:03AM 41.6003 -81.1081 214° Southwest 294 338 10,300 -1,380 Descending Cleveland Center
07:04AM 41.5747 -81.1911 248° West 224 258 9,100 -1,440 Descending Cleveland Center
07:05AM 41.5639 -81.2714 260° West 230 265 7,400 -1,440 Descending Cleveland Center
07:06AM 41.5508 -81.3517 258° West 214 246 6,200 -1,020 Descending Cleveland Center
07:07AM 41.5356 -81.4403 257° West 212 244 5,300 -600 Descending Cleveland Center
07:08AM 41.5247 -81.5150 259° West 198 228 5,000 -540 Descending Cleveland Center
07:09AM 41.5117 -81.5786 255° West 198 228 4,300 -720 Descending Cleveland Center
07:10AM 41.5006 -81.6422 257° West 199 229 3,700 -660 Descending Cleveland Center
07:11AM 41.4875 -81.7142 256° West 193 222 3,000 -540 Descending Cleveland Center
07:12AM 41.4703 -81.7608 244° Southwest 134 154 2,600 -600 Descending Cleveland Center
07:13AM 41.4450 -81.7964 227° Southwest 118 136 1,900 -720 Descending Cleveland Center
07:14AM 41.4175 -81.8319 224° Southwest 130 150 1,100 -720 Descending Cleveland Center
07:16AM 41.4000 -81.8500 252° West  Level FlightAware Approximate
07:23AM 41.4094 -81.8547 252° West  Level Estimated